sensor_id;sensor_type;location;lat;lon;timestamp;P1;durP1;ratioP1;P2;durP2;ratioP2
33206;SDS011;19565;46.602;11.534;2023-12-04T00:00:10;12.83;;;12.13;;
33206;SDS011;19565;46.602;11.534;2023-12-04T00:02:41;12.40;;;11.80;;
33206;SDS011;19565;46.602;11.534;2023-12-04T00:05:09;11.47;;;10.87;;
33206;SDS011;19565;46.602;11.534;2023-12-04T00:07:37;11.20;;;10.60;;
33206;SDS011;19565;46.602;11.534;2023-12-04T00:10:05;13.57;;;12.20;;
33206;SDS011;19565;46.602;11.534;2023-12-04T00:12:36;12.13;;;11.53;;
33206;SDS011;19565;46.602;11.534;2023-12-04T00:15:04;11.30;;;10.70;;
33206;SDS011;19565;46.602;11.534;2023-12-04T00:17:33;11.70;;;11.10;;
33206;SDS011;19565;46.602;11.534;2023-12-04T00:20:06;12.20;;;11.60;;
33206;SDS011;19565;46.602;11.534;2023-12-04T00:22:35;11.47;;;10.87;;
33206;SDS011;19565;46.602;11.534;2023-12-04T00:25:03;11.70;;;11.00;;
33206;SDS011;19565;46.602;11.534;2023-12-04T00:27:34;10.53;;;9.93;;
33206;SDS011;19565;46.602;11.534;2023-12-04T00:30:03;11.20;;;10.60;;
33206;SDS011;19565;46.602;11.534;2023-12-04T00:32:32;11.40;;;10.80;;
33206;SDS011;19565;46.602;11.534;2023-12-04T00:35:00;11.73;;;11.13;;
33206;SDS011;19565;46.602;11.534;2023-12-04T00:37:29;13.73;;;12.93;;
33206;SDS011;19565;46.602;11.534;2023-12-04T00:39:57;12.30;;;11.60;;
33206;SDS011;19565;46.602;11.534;2023-12-04T00:42:25;11.43;;;10.83;;
33206;SDS011;19565;46.602;11.534;2023-12-04T00:44:54;11.80;;;11.20;;
33206;SDS011;19565;46.602;11.534;2023-12-04T00:47:22;10.70;;;10.10;;
33206;SDS011;19565;46.602;11.534;2023-12-04T00:49:50;11.00;;;10.40;;
33206;SDS011;19565;46.602;11.534;2023-12-04T00:52:18;11.13;;;10.53;;
33206;SDS011;19565;46.602;11.534;2023-12-04T00:54:46;11.80;;;11.20;;
33206;SDS011;19565;46.602;11.534;2023-12-04T00:57:14;11.30;;;10.70;;
33206;SDS011;19565;46.602;11.534;2023-12-04T00:59:42;12.00;;;11.40;;
33206;SDS011;19565;46.602;11.534;2023-12-04T01:02:11;11.50;;;10.90;;
33206;SDS011;19565;46.602;11.534;2023-12-04T01:04:39;12.57;;;11.87;;
33206;SDS011;19565;46.602;11.534;2023-12-04T01:07:08;26.00;;;24.80;;
33206;SDS011;19565;46.602;11.534;2023-12-04T01:09:36;24.70;;;23.60;;
33206;SDS011;19565;46.602;11.534;2023-12-04T01:12:04;26.93;;;25.73;;
33206;SDS011;19565;46.602;11.534;2023-12-04T01:14:33;27.43;;;26.23;;
33206;SDS011;19565;46.602;11.534;2023-12-04T01:17:04;27.03;;;25.83;;
33206;SDS011;19565;46.602;11.534;2023-12-04T01:19:34;28.03;;;26.83;;
33206;SDS011;19565;46.602;11.534;2023-12-04T01:22:02;27.70;;;26.50;;
33206;SDS011;19565;46.602;11.534;2023-12-04T01:24:30;28.07;;;26.87;;
33206;SDS011;19565;46.602;11.534;2023-12-04T01:26:59;29.47;;;28.17;;
33206;SDS011;19565;46.602;11.534;2023-12-04T01:29:27;28.40;;;27.20;;
33206;SDS011;19565;46.602;11.534;2023-12-04T01:31:56;29.67;;;28.37;;
33206;SDS011;19565;46.602;11.534;2023-12-04T01:34:24;30.00;;;28.70;;
33206;SDS011;19565;46.602;11.534;2023-12-04T01:36:53;31.87;;;30.40;;
33206;SDS011;19565;46.602;11.534;2023-12-04T01:39:21;28.53;;;27.33;;
33206;SDS011;19565;46.602;11.534;2023-12-04T01:41:49;30.20;;;28.90;;
33206;SDS011;19565;46.602;11.534;2023-12-04T01:44:17;30.57;;;29.27;;
33206;SDS011;19565;46.602;11.534;2023-12-04T01:46:45;28.17;;;26.97;;
33206;SDS011;19565;46.602;11.534;2023-12-04T01:49:13;11.30;;;10.70;;
33206;SDS011;19565;46.602;11.534;2023-12-04T01:51:41;10.80;;;10.20;;
33206;SDS011;19565;46.602;11.534;2023-12-04T01:54:11;11.03;;;10.43;;
33206;SDS011;19565;46.602;11.534;2023-12-04T01:56:40;10.60;;;10.00;;
33206;SDS011;19565;46.602;11.534;2023-12-04T01:59:08;10.80;;;10.20;;
33206;SDS011;19565;46.602;11.534;2023-12-04T02:01:36;10.03;;;9.43;;
33206;SDS011;19565;46.602;11.534;2023-12-04T02:04:04;10.70;;;10.10;;
33206;SDS011;19565;46.602;11.534;2023-12-04T02:06:33;9.80;;;9.30;;
33206;SDS011;19565;46.602;11.534;2023-12-04T02:09:02;13.50;;;10.03;;
33206;SDS011;19565;46.602;11.534;2023-12-04T02:11:34;9.40;;;8.90;;
33206;SDS011;19565;46.602;11.534;2023-12-04T02:14:02;9.13;;;8.63;;
33206;SDS011;19565;46.602;11.534;2023-12-04T02:16:31;8.60;;;8.10;;
33206;SDS011;19565;46.602;11.534;2023-12-04T02:19:04;8.30;;;7.80;;
33206;SDS011;19565;46.602;11.534;2023-12-04T02:21:34;8.20;;;7.70;;
33206;SDS011;19565;46.602;11.534;2023-12-04T02:24:04;7.80;;;7.30;;
33206;SDS011;19565;46.602;11.534;2023-12-04T02:26:34;7.57;;;7.07;;
33206;SDS011;19565;46.602;11.534;2023-12-04T02:29:07;6.90;;;6.50;;
33206;SDS011;19565;46.602;11.534;2023-12-04T02:31:38;6.53;;;6.13;;
33206;SDS011;19565;46.602;11.534;2023-12-04T02:34:08;6.40;;;6.00;;
33206;SDS011;19565;46.602;11.534;2023-12-04T02:36:38;6.30;;;5.90;;
33206;SDS011;19565;46.602;11.534;2023-12-04T02:39:09;7.80;;;7.40;;
33206;SDS011;19565;46.602;11.534;2023-12-04T02:41:38;6.47;;;6.07;;
33206;SDS011;19565;46.602;11.534;2023-12-04T02:44:06;6.60;;;6.20;;
33206;SDS011;19565;46.602;11.534;2023-12-04T02:46:34;6.80;;;6.40;;
33206;SDS011;19565;46.602;11.534;2023-12-04T02:49:02;6.70;;;6.30;;
33206;SDS011;19565;46.602;11.534;2023-12-04T02:51:30;6.50;;;6.10;;
33206;SDS011;19565;46.602;11.534;2023-12-04T02:53:58;7.07;;;6.67;;
33206;SDS011;19565;46.602;11.534;2023-12-04T02:56:27;20.47;;;19.57;;
33206;SDS011;19565;46.602;11.534;2023-12-04T02:58:55;23.63;;;22.53;;
33206;SDS011;19565;46.602;11.534;2023-12-04T03:01:23;23.03;;;22.03;;
33206;SDS011;19565;46.602;11.534;2023-12-04T03:03:51;24.47;;;23.37;;
33206;SDS011;19565;46.602;11.534;2023-12-04T03:06:19;24.90;;;23.80;;
33206;SDS011;19565;46.602;11.534;2023-12-04T03:08:47;24.10;;;23.00;;
33206;SDS011;19565;46.602;11.534;2023-12-04T03:11:15;25.00;;;23.90;;
33206;SDS011;19565;46.602;11.534;2023-12-04T03:13:45;24.73;;;23.63;;
33206;SDS011;19565;46.602;11.534;2023-12-04T03:16:16;25.37;;;24.27;;
33206;SDS011;19565;46.602;11.534;2023-12-04T03:18:44;26.53;;;25.43;;
33206;SDS011;19565;46.602;11.534;2023-12-04T03:21:12;26.70;;;25.50;;
33206;SDS011;19565;46.602;11.534;2023-12-04T03:23:40;27.60;;;26.40;;
33206;SDS011;19565;46.602;11.534;2023-12-04T03:26:08;27.50;;;26.30;;
33206;SDS011;19565;46.602;11.534;2023-12-04T03:28:38;25.63;;;24.53;;
33206;SDS011;19565;46.602;11.534;2023-12-04T03:31:07;27.00;;;25.80;;
33206;SDS011;19565;46.602;11.534;2023-12-04T03:33:35;26.47;;;25.37;;
33206;SDS011;19565;46.602;11.534;2023-12-04T03:36:04;26.57;;;25.43;;
33206;SDS011;19565;46.602;11.534;2023-12-04T03:38:33;26.60;;;25.47;;
33206;SDS011;19565;46.602;11.534;2023-12-04T03:41:01;26.90;;;25.60;;
33206;SDS011;19565;46.602;11.534;2023-12-04T03:43:29;25.17;;;24.07;;
33206;SDS011;19565;46.602;11.534;2023-12-04T03:45:57;24.17;;;23.07;;
33206;SDS011;19565;46.602;11.534;2023-12-04T03:48:26;24.33;;;23.23;;
33206;SDS011;19565;46.602;11.534;2023-12-04T03:50:54;7.93;;;7.23;;
33206;SDS011;19565;46.602;11.534;2023-12-04T03:53:22;7.33;;;6.93;;
33206;SDS011;19565;46.602;11.534;2023-12-04T03:55:50;6.97;;;6.57;;
33206;SDS011;19565;46.602;11.534;2023-12-04T03:58:18;7.40;;;7.00;;
33206;SDS011;19565;46.602;11.534;2023-12-04T04:00:46;6.80;;;6.40;;
33206;SDS011;19565;46.602;11.534;2023-12-04T04:03:14;7.10;;;6.70;;
33206;SDS011;19565;46.602;11.534;2023-12-04T04:05:44;7.70;;;7.17;;
33206;SDS011;19565;46.602;11.534;2023-12-04T04:08:12;6.90;;;6.50;;
33206;SDS011;19565;46.602;11.534;2023-12-04T04:10:40;6.80;;;6.40;;
33206;SDS011;19565;46.602;11.534;2023-12-04T04:13:08;6.40;;;6.00;;
33206;SDS011;19565;46.602;11.534;2023-12-04T04:15:36;5.90;;;5.60;;
33206;SDS011;19565;46.602;11.534;2023-12-04T04:18:04;5.93;;;5.63;;
33206;SDS011;19565;46.602;11.534;2023-12-04T04:20:32;6.03;;;5.70;;
33206;SDS011;19565;46.602;11.534;2023-12-04T04:23:01;5.70;;;5.40;;
33206;SDS011;19565;46.602;11.534;2023-12-04T04:25:29;6.23;;;5.83;;
33206;SDS011;19565;46.602;11.534;2023-12-04T04:27:58;7.23;;;6.80;;
33206;SDS011;19565;46.602;11.534;2023-12-04T04:30:26;5.87;;;5.57;;
33206;SDS011;19565;46.602;11.534;2023-12-04T04:32:54;5.83;;;5.53;;
33206;SDS011;19565;46.602;11.534;2023-12-04T04:35:22;5.60;;;5.30;;
33206;SDS011;19565;46.602;11.534;2023-12-04T04:37:50;5.70;;;5.40;;
33206;SDS011;19565;46.602;11.534;2023-12-04T04:40:20;6.13;;;5.77;;
33206;SDS011;19565;46.602;11.534;2023-12-04T04:42:48;5.50;;;5.20;;
33206;SDS011;19565;46.602;11.534;2023-12-04T04:45:16;8.03;;;7.40;;
33206;SDS011;19565;46.602;11.534;2023-12-04T04:47:43;5.50;;;5.20;;
33206;SDS011;19565;46.602;11.534;2023-12-04T04:50:12;15.17;;;14.47;;
33206;SDS011;19565;46.602;11.534;2023-12-04T04:52:40;16.10;;;15.30;;
33206;SDS011;19565;46.602;11.534;2023-12-04T04:55:08;16.40;;;15.60;;
33206;SDS011;19565;46.602;11.534;2023-12-04T04:57:37;19.23;;;18.13;;
33206;SDS011;19565;46.602;11.534;2023-12-04T05:00:06;19.10;;;18.20;;
33206;SDS011;19565;46.602;11.534;2023-12-04T05:02:35;18.37;;;17.53;;
33206;SDS011;19565;46.602;11.534;2023-12-04T05:05:03;17.20;;;16.40;;
33206;SDS011;19565;46.602;11.534;2023-12-04T05:07:31;17.57;;;16.77;;
33206;SDS011;19565;46.602;11.534;2023-12-04T05:09:59;16.30;;;15.50;;
33206;SDS011;19565;46.602;11.534;2023-12-04T05:12:31;17.03;;;16.17;;
33206;SDS011;19565;46.602;11.534;2023-12-04T05:15:01;18.23;;;17.33;;
33206;SDS011;19565;46.602;11.534;2023-12-04T05:17:29;18.63;;;17.73;;
33206;SDS011;19565;46.602;11.534;2023-12-04T05:19:57;5.30;;;5.00;;
33206;SDS011;19565;46.602;11.534;2023-12-04T05:22:25;4.90;;;4.60;;
33206;SDS011;19565;46.602;11.534;2023-12-04T05:24:53;4.47;;;4.27;;
33206;SDS011;19565;46.602;11.534;2023-12-04T05:27:21;16.47;;;15.67;;
33206;SDS011;19565;46.602;11.534;2023-12-04T05:29:49;15.90;;;15.10;;
33206;SDS011;19565;46.602;11.534;2023-12-04T05:32:19;16.87;;;16.07;;
33206;SDS011;19565;46.602;11.534;2023-12-04T05:34:47;18.37;;;17.47;;
33206;SDS011;19565;46.602;11.534;2023-12-04T05:37:15;17.60;;;16.80;;
33206;SDS011;19565;46.602;11.534;2023-12-04T05:39:43;17.30;;;16.50;;
33206;SDS011;19565;46.602;11.534;2023-12-04T05:42:11;17.43;;;16.63;;
33206;SDS011;19565;46.602;11.534;2023-12-04T05:44:39;17.67;;;16.87;;
33206;SDS011;19565;46.602;11.534;2023-12-04T05:47:07;19.00;;;18.10;;
33206;SDS011;19565;46.602;11.534;2023-12-04T05:49:36;19.23;;;18.33;;
33206;SDS011;19565;46.602;11.534;2023-12-04T05:52:05;19.87;;;18.97;;
33206;SDS011;19565;46.602;11.534;2023-12-04T05:54:33;19.00;;;18.10;;
33206;SDS011;19565;46.602;11.534;2023-12-04T05:57:01;20.00;;;19.10;;
33206;SDS011;19565;46.602;11.534;2023-12-04T05:59:29;22.20;;;21.20;;
33206;SDS011;19565;46.602;11.534;2023-12-04T06:01:57;22.00;;;21.00;;
33206;SDS011;19565;46.602;11.534;2023-12-04T06:04:26;21.20;;;20.30;;
33206;SDS011;19565;46.602;11.534;2023-12-04T06:06:55;21.67;;;20.67;;
33206;SDS011;19565;46.602;11.534;2023-12-04T06:09:23;19.47;;;18.57;;
33206;SDS011;19565;46.602;11.534;2023-12-04T06:11:51;19.50;;;18.60;;
33206;SDS011;19565;46.602;11.534;2023-12-04T06:14:19;26.80;;;25.60;;
33206;SDS011;19565;46.602;11.534;2023-12-04T06:16:47;23.73;;;22.73;;
33206;SDS011;19565;46.602;11.534;2023-12-04T06:19:15;19.77;;;18.87;;
33206;SDS011;19565;46.602;11.534;2023-12-04T06:21:43;19.80;;;18.90;;
33206;SDS011;19565;46.602;11.534;2023-12-04T06:24:13;19.47;;;18.57;;
33206;SDS011;19565;46.602;11.534;2023-12-04T06:26:41;19.70;;;18.80;;
33206;SDS011;19565;46.602;11.534;2023-12-04T06:29:10;19.03;;;18.13;;
33206;SDS011;19565;46.602;11.534;2023-12-04T06:31:38;19.03;;;18.13;;
33206;SDS011;19565;46.602;11.534;2023-12-04T06:34:07;22.83;;;21.80;;
33206;SDS011;19565;46.602;11.534;2023-12-04T06:36:37;19.70;;;18.80;;
33206;SDS011;19565;46.602;11.534;2023-12-04T06:39:09;20.07;;;19.17;;
33206;SDS011;19565;46.602;11.534;2023-12-04T06:41:40;22.27;;;21.27;;
33206;SDS011;19565;46.602;11.534;2023-12-04T06:44:09;22.07;;;21.07;;
33206;SDS011;19565;46.602;11.534;2023-12-04T06:46:38;21.93;;;20.93;;
33206;SDS011;19565;46.602;11.534;2023-12-04T06:49:09;21.63;;;20.63;;
33206;SDS011;19565;46.602;11.534;2023-12-04T06:51:41;23.20;;;22.20;;
33206;SDS011;19565;46.602;11.534;2023-12-04T06:54:09;24.57;;;23.40;;
33206;SDS011;19565;46.602;11.534;2023-12-04T06:56:39;21.37;;;20.43;;
33206;SDS011;19565;46.602;11.534;2023-12-04T06:59:07;23.43;;;22.33;;
33206;SDS011;19565;46.602;11.534;2023-12-04T07:01:35;24.50;;;23.40;;
33206;SDS011;19565;46.602;11.534;2023-12-04T07:04:03;9.17;;;8.67;;
33206;SDS011;19565;46.602;11.534;2023-12-04T07:06:36;10.10;;;9.50;;
33206;SDS011;19565;46.602;11.534;2023-12-04T07:09:04;10.67;;;10.07;;
33206;SDS011;19565;46.602;11.534;2023-12-04T07:11:33;12.40;;;11.73;;
33206;SDS011;19565;46.602;11.534;2023-12-04T07:14:03;20.03;;;19.13;;
33206;SDS011;19565;46.602;11.534;2023-12-04T07:16:31;11.93;;;11.33;;
33206;SDS011;19565;46.602;11.534;2023-12-04T07:19:05;12.80;;;12.10;;
33206;SDS011;19565;46.602;11.534;2023-12-04T07:21:33;12.57;;;11.97;;
33206;SDS011;19565;46.602;11.534;2023-12-04T07:24:01;14.60;;;13.80;;
33206;SDS011;19565;46.602;11.534;2023-12-04T07:26:30;13.13;;;12.43;;
33206;SDS011;19565;46.602;11.534;2023-12-04T07:28:58;13.50;;;12.80;;
33206;SDS011;19565;46.602;11.534;2023-12-04T07:31:27;13.53;;;12.83;;
33206;SDS011;19565;46.602;11.534;2023-12-04T07:33:55;14.40;;;13.70;;
33206;SDS011;19565;46.602;11.534;2023-12-04T07:36:26;14.47;;;13.77;;
33206;SDS011;19565;46.602;11.534;2023-12-04T07:38:54;14.40;;;13.70;;
33206;SDS011;19565;46.602;11.534;2023-12-04T07:41:22;14.20;;;13.50;;
33206;SDS011;19565;46.602;11.534;2023-12-04T07:43:50;20.60;;;19.70;;
33206;SDS011;19565;46.602;11.534;2023-12-04T07:46:18;13.93;;;13.23;;
33206;SDS011;19565;46.602;11.534;2023-12-04T07:48:47;14.80;;;14.10;;
33206;SDS011;19565;46.602;11.534;2023-12-04T07:51:18;14.50;;;13.80;;
33206;SDS011;19565;46.602;11.534;2023-12-04T07:53:46;14.20;;;13.50;;
33206;SDS011;19565;46.602;11.534;2023-12-04T07:56:14;14.13;;;13.43;;
33206;SDS011;19565;46.602;11.534;2023-12-04T07:58:42;13.63;;;12.93;;
33206;SDS011;19565;46.602;11.534;2023-12-04T08:01:10;14.37;;;13.67;;
33206;SDS011;19565;46.602;11.534;2023-12-04T08:03:38;15.60;;;14.80;;
33206;SDS011;19565;46.602;11.534;2023-12-04T08:06:08;14.03;;;13.33;;
33206;SDS011;19565;46.602;11.534;2023-12-04T08:08:36;14.00;;;13.30;;
33206;SDS011;19565;46.602;11.534;2023-12-04T08:11:04;13.17;;;12.47;;
33206;SDS011;19565;46.602;11.534;2023-12-04T08:13:32;24.17;;;23.10;;
33206;SDS011;19565;46.602;11.534;2023-12-04T08:16:00;24.30;;;23.20;;
33206;SDS011;19565;46.602;11.534;2023-12-04T08:18:28;24.67;;;23.57;;
33206;SDS011;19565;46.602;11.534;2023-12-04T08:20:56;28.20;;;27.00;;
33206;SDS011;19565;46.602;11.534;2023-12-04T08:23:29;25.63;;;24.47;;
33206;SDS011;19565;46.602;11.534;2023-12-04T08:25:57;25.80;;;24.70;;
33206;SDS011;19565;46.602;11.534;2023-12-04T08:28:26;24.83;;;23.73;;
33206;SDS011;19565;46.602;11.534;2023-12-04T08:30:54;25.20;;;24.10;;
33206;SDS011;19565;46.602;11.534;2023-12-04T08:33:22;27.63;;;26.43;;
33206;SDS011;19565;46.602;11.534;2023-12-04T08:35:52;26.97;;;25.77;;
33206;SDS011;19565;46.602;11.534;2023-12-04T08:38:20;25.40;;;24.30;;
33206;SDS011;19565;46.602;11.534;2023-12-04T08:40:50;25.80;;;24.70;;
33206;SDS011;19565;46.602;11.534;2023-12-04T08:43:19;27.73;;;26.53;;
33206;SDS011;19565;46.602;11.534;2023-12-04T08:45:47;26.85;;;25.75;;
33206;SDS011;19565;46.602;11.534;2023-12-04T08:48:15;30.43;;;29.13;;
33206;SDS011;19565;46.602;11.534;2023-12-04T08:50:43;28.63;;;27.43;;
33206;SDS011;19565;46.602;11.534;2023-12-04T08:53:11;27.70;;;26.50;;
33206;SDS011;19565;46.602;11.534;2023-12-04T08:55:39;27.53;;;26.33;;
33206;SDS011;19565;46.602;11.534;2023-12-04T08:58:08;27.27;;;26.07;;
33206;SDS011;19565;46.602;11.534;2023-12-04T09:00:37;25.90;;;24.80;;
33206;SDS011;19565;46.602;11.534;2023-12-04T09:03:09;25.83;;;24.73;;
33206;SDS011;19565;46.602;11.534;2023-12-04T09:05:48;27.57;;;26.17;;
33206;SDS011;19565;46.602;11.534;2023-12-04T09:08:18;28.33;;;27.13;;
33206;SDS011;19565;46.602;11.534;2023-12-04T09:11:02;27.50;;;26.30;;
33206;SDS011;19565;46.602;11.534;2023-12-04T09:13:49;27.00;;;25.80;;
33206;SDS011;19565;46.602;11.534;2023-12-04T09:16:17;25.43;;;24.33;;
33206;SDS011;19565;46.602;11.534;2023-12-04T09:18:45;27.33;;;26.13;;
33206;SDS011;19565;46.602;11.534;2023-12-04T09:21:13;27.53;;;26.33;;
33206;SDS011;19565;46.602;11.534;2023-12-04T09:23:43;29.30;;;28.10;;
33206;SDS011;19565;46.602;11.534;2023-12-04T09:26:16;29.97;;;28.67;;
33206;SDS011;19565;46.602;11.534;2023-12-04T09:28:44;26.03;;;24.93;;
33206;SDS011;19565;46.602;11.534;2023-12-04T09:31:14;24.97;;;23.87;;
33206;SDS011;19565;46.602;11.534;2023-12-04T09:33:42;26.70;;;25.50;;
33206;SDS011;19565;46.602;11.534;2023-12-04T09:36:10;27.70;;;26.50;;
33206;SDS011;19565;46.602;11.534;2023-12-04T09:38:38;32.37;;;30.97;;
33206;SDS011;19565;46.602;11.534;2023-12-04T09:41:06;29.40;;;28.13;;
33206;SDS011;19565;46.602;11.534;2023-12-04T09:43:36;34.77;;;28.03;;
33206;SDS011;19565;46.602;11.534;2023-12-04T09:46:04;30.20;;;28.90;;
33206;SDS011;19565;46.602;11.534;2023-12-04T09:48:34;29.37;;;28.17;;
33206;SDS011;19565;46.602;11.534;2023-12-04T09:51:04;27.67;;;26.47;;
33206;SDS011;19565;46.602;11.534;2023-12-04T09:53:34;25.93;;;24.77;;
33206;SDS011;19565;46.602;11.534;2023-12-04T09:56:03;27.73;;;26.53;;
33206;SDS011;19565;46.602;11.534;2023-12-04T09:58:33;26.17;;;25.07;;
33206;SDS011;19565;46.602;11.534;2023-12-04T10:01:07;32.63;;;26.27;;
33206;SDS011;19565;46.602;11.534;2023-12-04T10:03:36;27.60;;;26.40;;
33206;SDS011;19565;46.602;11.534;2023-12-04T10:06:06;27.43;;;26.23;;
33206;SDS011;19565;46.602;11.534;2023-12-04T10:08:35;28.67;;;27.47;;
33206;SDS011;19565;46.602;11.534;2023-12-04T10:11:04;28.33;;;27.13;;
33206;SDS011;19565;46.602;11.534;2023-12-04T10:13:32;27.80;;;26.60;;
33206;SDS011;19565;46.602;11.534;2023-12-04T10:16:32;28.07;;;26.87;;
33206;SDS011;19565;46.602;11.534;2023-12-04T10:21:48;25.60;;;24.50;;
33206;SDS011;19565;46.602;11.534;2023-12-04T10:24:26;24.70;;;23.60;;
33206;SDS011;19565;46.602;11.534;2023-12-04T10:26:56;25.13;;;24.03;;
33206;SDS011;19565;46.602;11.534;2023-12-04T10:29:26;26.10;;;25.00;;
33206;SDS011;19565;46.602;11.534;2023-12-04T10:32:00;27.27;;;26.07;;
33206;SDS011;19565;46.602;11.534;2023-12-04T10:34:30;26.30;;;25.20;;
33206;SDS011;19565;46.602;11.534;2023-12-04T10:37:00;27.60;;;26.40;;
33206;SDS011;19565;46.602;11.534;2023-12-04T10:39:30;27.67;;;26.47;;
33206;SDS011;19565;46.602;11.534;2023-12-04T10:42:01;27.10;;;25.90;;
33206;SDS011;19565;46.602;11.534;2023-12-04T10:44:30;26.37;;;25.27;;
33206;SDS011;19565;46.602;11.534;2023-12-04T10:47:00;27.00;;;25.80;;
33206;SDS011;19565;46.602;11.534;2023-12-04T10:49:28;27.47;;;26.27;;
33206;SDS011;19565;46.602;11.534;2023-12-04T10:51:58;25.80;;;24.70;;
33206;SDS011;19565;46.602;11.534;2023-12-04T10:54:27;28.20;;;27.00;;
33206;SDS011;19565;46.602;11.534;2023-12-04T10:56:57;30.60;;;29.20;;
33206;SDS011;19565;46.602;11.534;2023-12-04T10:59:32;27.40;;;26.20;;
33206;SDS011;19565;46.602;11.534;2023-12-04T11:02:05;29.83;;;28.63;;
33206;SDS011;19565;46.602;11.534;2023-12-04T11:04:36;27.53;;;26.33;;
33206;SDS011;19565;46.602;11.534;2023-12-04T11:07:06;28.40;;;27.20;;
33206;SDS011;19565;46.602;11.534;2023-12-04T11:09:36;28.90;;;27.30;;
33206;SDS011;19565;46.602;11.534;2023-12-04T11:12:08;27.43;;;26.23;;
33206;SDS011;19565;46.602;11.534;2023-12-04T11:14:42;26.97;;;25.77;;
33206;SDS011;19565;46.602;11.534;2023-12-04T11:17:13;26.17;;;25.07;;
33206;SDS011;19565;46.602;11.534;2023-12-04T11:19:47;28.37;;;27.17;;
33206;SDS011;19565;46.602;11.534;2023-12-04T11:22:19;26.73;;;25.43;;
33206;SDS011;19565;46.602;11.534;2023-12-04T11:24:49;26.17;;;25.07;;
33206;SDS011;19565;46.602;11.534;2023-12-04T11:27:17;26.57;;;25.03;;
33206;SDS011;19565;46.602;11.534;2023-12-04T11:29:46;25.73;;;24.63;;
33206;SDS011;19565;46.602;11.534;2023-12-04T11:32:15;26.60;;;25.50;;
33206;SDS011;19565;46.602;11.534;2023-12-04T11:34:49;25.80;;;24.70;;
33206;SDS011;19565;46.602;11.534;2023-12-04T11:37:19;26.17;;;25.07;;
33206;SDS011;19565;46.602;11.534;2023-12-04T11:39:47;25.83;;;24.73;;
33206;SDS011;19565;46.602;11.534;2023-12-04T11:42:18;25.20;;;24.10;;
33206;SDS011;19565;46.602;11.534;2023-12-04T11:44:48;25.50;;;24.40;;
33206;SDS011;19565;46.602;11.534;2023-12-04T11:47:16;26.17;;;25.07;;
33206;SDS011;19565;46.602;11.534;2023-12-04T11:49:44;28.50;;;27.03;;
33206;SDS011;19565;46.602;11.534;2023-12-04T11:52:14;25.73;;;24.63;;
33206;SDS011;19565;46.602;11.534;2023-12-04T11:54:58;25.23;;;24.13;;
33206;SDS011;19565;46.602;11.534;2023-12-04T11:57:32;23.97;;;22.87;;
33206;SDS011;19565;46.602;11.534;2023-12-04T12:00:07;30.03;;;28.77;;
33206;SDS011;19565;46.602;11.534;2023-12-04T12:02:38;27.70;;;26.50;;
33206;SDS011;19565;46.602;11.534;2023-12-04T12:05:26;28.60;;;27.30;;
33206;SDS011;19565;46.602;11.534;2023-12-04T12:07:56;15.83;;;15.03;;
33206;SDS011;19565;46.602;11.534;2023-12-04T12:10:26;13.80;;;13.10;;
33206;SDS011;19565;46.602;11.534;2023-12-04T12:12:55;12.87;;;12.17;;
33206;SDS011;19565;46.602;11.534;2023-12-04T12:15:23;13.67;;;12.97;;
33206;SDS011;19565;46.602;11.534;2023-12-04T12:17:52;23.13;;;22.13;;
33206;SDS011;19565;46.602;11.534;2023-12-04T12:20:21;23.37;;;22.37;;
33206;SDS011;19565;46.602;11.534;2023-12-04T12:22:49;24.00;;;22.90;;
33206;SDS011;19565;46.602;11.534;2023-12-04T12:25:19;23.00;;;22.00;;
33206;SDS011;19565;46.602;11.534;2023-12-04T12:27:49;24.67;;;23.57;;
33206;SDS011;19565;46.602;11.534;2023-12-04T12:30:18;25.93;;;24.83;;
33206;SDS011;19565;46.602;11.534;2023-12-04T12:32:46;23.87;;;22.87;;
33206;SDS011;19565;46.602;11.534;2023-12-04T12:35:14;23.13;;;22.03;;
33206;SDS011;19565;46.602;11.534;2023-12-04T12:37:42;23.73;;;22.73;;
33206;SDS011;19565;46.602;11.534;2023-12-04T12:40:10;24.67;;;23.57;;
33206;SDS011;19565;46.602;11.534;2023-12-04T12:42:40;23.43;;;22.40;;
33206;SDS011;19565;46.602;11.534;2023-12-04T12:45:09;22.57;;;21.57;;
33206;SDS011;19565;46.602;11.534;2023-12-04T12:47:40;22.60;;;21.60;;
33206;SDS011;19565;46.602;11.534;2023-12-04T12:50:09;22.03;;;21.03;;
33206;SDS011;19565;46.602;11.534;2023-12-04T12:52:40;21.73;;;20.73;;
33206;SDS011;19565;46.602;11.534;2023-12-04T12:55:10;22.83;;;21.73;;
33206;SDS011;19565;46.602;11.534;2023-12-04T12:57:39;21.60;;;20.60;;
33206;SDS011;19565;46.602;11.534;2023-12-04T13:00:07;12.23;;;11.53;;
33206;SDS011;19565;46.602;11.534;2023-12-04T13:02:37;11.07;;;10.47;;
33206;SDS011;19565;46.602;11.534;2023-12-04T13:05:05;10.83;;;10.23;;
33206;SDS011;19565;46.602;11.534;2023-12-04T13:07:39;16.75;;;15.95;;
33206;SDS011;19565;46.602;11.534;2023-12-04T13:10:07;20.40;;;19.50;;
33206;SDS011;19565;46.602;11.534;2023-12-04T13:12:35;22.80;;;21.80;;
33206;SDS011;19565;46.602;11.534;2023-12-04T13:15:05;23.07;;;22.07;;
33206;SDS011;19565;46.602;11.534;2023-12-04T13:17:34;20.43;;;19.53;;
33206;SDS011;19565;46.602;11.534;2023-12-04T13:20:02;21.40;;;20.43;;
33206;SDS011;19565;46.602;11.534;2023-12-04T13:22:31;20.73;;;19.77;;
33206;SDS011;19565;46.602;11.534;2023-12-04T13:25:00;21.53;;;20.53;;
33206;SDS011;19565;46.602;11.534;2023-12-04T13:27:28;20.27;;;19.37;;
33206;SDS011;19565;46.602;11.534;2023-12-04T13:29:56;23.93;;;22.93;;
33206;SDS011;19565;46.602;11.534;2023-12-04T13:32:25;20.37;;;19.47;;
33206;SDS011;19565;46.602;11.534;2023-12-04T13:34:53;21.87;;;20.80;;
33206;SDS011;19565;46.602;11.534;2023-12-04T13:37:22;21.93;;;20.93;;
33206;SDS011;19565;46.602;11.534;2023-12-04T13:39:52;21.47;;;20.47;;
33206;SDS011;19565;46.602;11.534;2023-12-04T13:42:24;20.27;;;19.37;;
33206;SDS011;19565;46.602;11.534;2023-12-04T13:45:09;22.17;;;21.17;;
33206;SDS011;19565;46.602;11.534;2023-12-04T13:47:40;21.53;;;20.53;;
33206;SDS011;19565;46.602;11.534;2023-12-04T13:50:09;25.53;;;24.43;;
33206;SDS011;19565;46.602;11.534;2023-12-04T13:52:37;21.60;;;20.60;;
33206;SDS011;19565;46.602;11.534;2023-12-04T13:55:06;21.70;;;20.70;;
33206;SDS011;19565;46.602;11.534;2023-12-04T13:57:42;23.10;;;21.33;;
33206;SDS011;19565;46.602;11.534;2023-12-04T14:00:23;19.53;;;18.63;;
33206;SDS011;19565;46.602;11.534;2023-12-04T14:02:52;23.40;;;22.40;;
33206;SDS011;19565;46.602;11.534;2023-12-04T14:05:32;22.30;;;21.30;;
33206;SDS011;19565;46.602;11.534;2023-12-04T14:08:02;21.20;;;20.23;;
33206;SDS011;19565;46.602;11.534;2023-12-04T14:10:31;20.40;;;19.50;;
33206;SDS011;19565;46.602;11.534;2023-12-04T14:13:00;21.00;;;20.00;;
33206;SDS011;19565;46.602;11.534;2023-12-04T14:15:28;21.60;;;20.60;;
33206;SDS011;19565;46.602;11.534;2023-12-04T14:17:57;23.13;;;22.03;;
33206;SDS011;19565;46.602;11.534;2023-12-04T14:20:25;21.37;;;20.37;;
33206;SDS011;19565;46.602;11.534;2023-12-04T14:22:53;20.20;;;19.23;;
33206;SDS011;19565;46.602;11.534;2023-12-04T14:25:21;19.30;;;18.40;;
33206;SDS011;19565;46.602;11.534;2023-12-04T14:27:50;20.47;;;19.33;;